createdAt,value
2018-06-20T00:00:11.712Z,20.54
2018-06-20T00:01:11.707Z,20.83
2018-06-20T00:02:11.712Z,20.71
2018-06-20T00:03:11.703Z,20.72
2018-06-20T00:04:11.733Z,20.50
2018-06-20T00:05:11.707Z,20.51
2018-06-20T00:06:11.708Z,20.46
2018-06-20T00:07:11.716Z,20.53
2018-06-20T00:08:11.716Z,20.95
2018-06-20T00:09:11.723Z,20.71
2018-06-20T00:10:11.726Z,20.51
2018-06-20T00:11:11.725Z,20.80
2018-06-20T00:12:11.758Z,20.61
2018-06-20T00:13:11.735Z,20.47
2018-06-20T00:14:11.738Z,20.79
2018-06-20T00:15:11.747Z,20.74
2018-06-20T00:16:11.758Z,20.84
2018-06-20T00:17:11.750Z,20.86
2018-06-20T00:18:11.757Z,20.43
2018-06-20T00:19:11.772Z,20.72
2018-06-20T00:20:11.761Z,20.58
2018-06-20T00:21:11.773Z,20.20
2018-06-20T00:22:11.759Z,20.59
2018-06-20T00:23:11.776Z,20.76
2018-06-20T00:24:11.766Z,20.87
2018-06-20T00:25:11.773Z,20.56
2018-06-20T00:26:11.781Z,20.50
2018-06-20T00:27:11.792Z,20.68
2018-06-20T00:28:11.784Z,20.87
2018-06-20T00:29:11.793Z,20.90
2018-06-20T00:30:11.785Z,20.47
2018-06-20T00:31:11.792Z,20.51
2018-06-20T00:32:11.803Z,20.34
2018-06-20T00:33:11.802Z,20.42
2018-06-20T00:34:11.798Z,20.41
2018-06-20T00:35:20.440Z,20.56
2018-06-20T00:37:05.234Z,20.59
2018-06-20T00:38:05.230Z,21.16
2018-06-20T00:39:05.227Z,20.84
2018-06-20T00:40:05.227Z,20.59
2018-06-20T00:41:05.235Z,20.84
2018-06-20T00:42:05.239Z,20.79
2018-06-20T00:43:05.245Z,20.53
2018-06-20T00:44:05.241Z,20.33
2018-06-20T00:45:05.241Z,20.34
2018-06-20T00:46:05.253Z,20.38
2018-06-20T00:47:05.258Z,20.34
2018-06-20T00:48:05.263Z,20.09
2018-06-20T00:49:05.262Z,20.05
2018-06-20T00:50:05.257Z,19.88
2018-06-20T00:51:05.265Z,20.27
2018-06-20T00:52:05.266Z,20.47
2018-06-20T00:53:05.328Z,20.28
2018-06-20T00:54:05.291Z,20.02
2018-06-20T00:55:05.273Z,20.27
2018-06-20T00:56:05.283Z,19.86
2018-06-20T00:57:05.286Z,20.08
2018-06-20T00:58:05.281Z,20.49
2018-06-20T00:59:05.307Z,20.33
2018-06-20T01:00:05.289Z,19.93
2018-06-20T01:01:05.295Z,19.73
2018-06-20T01:02:05.299Z,20.20
2018-06-20T01:03:05.302Z,20.09
2018-06-20T01:04:05.304Z,20.28
2018-06-20T01:05:05.321Z,20.51
2018-06-20T01:06:05.323Z,20.49
2018-06-20T01:07:05.315Z,20.74
2018-06-20T01:08:13.972Z,20.66
2018-06-20T01:10:07.790Z,20.10
2018-06-20T01:10:58.744Z,20.09
2018-06-20T01:11:58.926Z,20.08
2018-06-20T01:12:58.748Z,19.88
2018-06-20T01:13:58.760Z,19.65
2018-06-20T01:16:28.858Z,20.08
2018-06-20T01:17:28.442Z,20.24
2018-06-20T01:19:13.202Z,19.90
2018-06-20T01:20:13.212Z,19.61
2018-06-20T01:21:13.220Z,19.57
2018-06-20T01:22:13.224Z,20.08
2018-06-20T01:23:13.224Z,20.35
2018-06-20T01:24:13.211Z,20.49
2018-06-20T01:25:13.211Z,20.41
2018-06-20T01:26:13.212Z,20.20
2018-06-20T01:27:13.226Z,20.23
2018-06-20T01:28:13.229Z,20.46
2018-06-20T01:29:13.217Z,19.91
2018-06-20T01:30:13.234Z,20.20
2018-06-20T01:31:13.233Z,20.23
2018-06-20T01:32:13.259Z,19.79
2018-06-20T01:33:13.249Z,19.63
2018-06-20T01:34:13.246Z,19.78
2018-06-20T01:35:13.241Z,19.65
2018-06-20T01:36:13.243Z,19.35
2018-06-20T01:37:13.254Z,19.10
2018-06-20T01:38:13.252Z,19.55
2018-06-20T01:39:13.244Z,19.73
2018-06-20T01:40:13.254Z,20.06
2018-06-20T01:41:13.253Z,20.06
2018-06-20T01:42:13.261Z,19.39
2018-06-20T01:43:13.276Z,19.33
2018-06-20T01:44:22.955Z,19.86
2018-06-20T01:46:06.689Z,19.97
2018-06-20T01:47:06.661Z,19.80
2018-06-20T01:48:06.663Z,19.46
2018-06-20T01:49:15.304Z,19.08
2018-06-20T01:51:01.111Z,19.11
2018-06-20T01:52:01.074Z,19.01
2018-06-20T01:53:01.073Z,18.76
2018-06-20T01:54:01.074Z,18.92
2018-06-20T01:55:01.083Z,19.10
2018-06-20T01:56:01.081Z,18.98
2018-06-20T01:57:01.081Z,18.95
2018-06-20T01:58:01.090Z,19.36
2018-06-20T01:59:01.087Z,19.51
2018-06-20T02:00:01.092Z,19.40
2018-06-20T02:01:01.102Z,19.88
2018-06-20T02:02:01.094Z,19.54
2018-06-20T02:03:01.101Z,19.15
2018-06-20T02:04:01.098Z,19.01
2018-06-20T02:05:01.100Z,18.95
2018-06-20T02:06:01.109Z,18.74
2018-06-20T02:07:01.110Z,18.72
2018-06-20T02:08:01.108Z,18.65
2018-06-20T02:09:01.113Z,18.77
2018-06-20T02:10:01.112Z,19.05
2018-06-20T02:11:01.120Z,19.15
2018-06-20T02:12:01.120Z,18.92
2018-06-20T02:13:01.127Z,18.61
2018-06-20T02:14:01.129Z,18.31
2018-06-20T02:15:01.129Z,18.72
2018-06-20T02:16:01.122Z,19.05
2018-06-20T02:17:01.129Z,19.39
2018-06-20T02:18:01.133Z,19.54
2018-06-20T02:19:01.141Z,19.54
2018-06-20T02:20:01.137Z,19.63
2018-06-20T02:21:01.139Z,19.50
2018-06-20T02:22:01.151Z,19.40
2018-06-20T02:23:01.142Z,19.35
2018-06-20T02:24:01.157Z,19.69
2018-06-20T02:25:01.156Z,19.58
2018-06-20T02:26:01.162Z,19.73
2018-06-20T02:27:01.178Z,19.54
2018-06-20T02:28:01.154Z,19.28
2018-06-20T02:29:01.158Z,18.95
2018-06-20T02:30:01.161Z,19.05
2018-06-20T02:31:01.162Z,19.10
2018-06-20T02:32:01.169Z,18.73
2018-06-20T02:33:01.682Z,18.62
2018-06-20T02:34:01.172Z,18.59
2018-06-20T02:35:01.184Z,18.52
2018-06-20T02:36:01.182Z,18.39
2018-06-20T02:37:01.179Z,18.55
2018-06-20T02:38:01.183Z,18.37
2018-06-20T02:39:01.187Z,18.13
2018-06-20T02:40:10.651Z,18.06
2018-06-20T02:41:54.621Z,18.37
2018-06-20T02:42:54.580Z,18.55
2018-06-20T02:43:54.590Z,18.65
2018-06-20T02:44:54.590Z,18.97
2018-06-20T02:45:54.588Z,18.64
2018-06-20T02:46:54.617Z,19.11
2018-06-20T02:47:54.601Z,18.76
2018-06-20T02:48:54.608Z,18.90
2018-06-20T02:49:54.596Z,18.76
2018-06-20T02:50:54.599Z,18.83
2018-06-20T02:51:54.600Z,18.74
2018-06-20T02:52:54.601Z,18.62
2018-06-20T02:53:54.599Z,18.58
2018-06-20T02:54:54.608Z,18.43
2018-06-20T02:55:54.605Z,18.43
2018-06-20T02:56:54.615Z,18.46
2018-06-20T02:57:54.618Z,18.29
2018-06-20T02:58:54.615Z,18.52
2018-06-20T02:59:54.625Z,18.54
2018-06-20T03:00:54.623Z,18.58
2018-06-20T03:20:02.116Z,18.17
2018-06-20T03:21:02.102Z,18.00
2018-06-20T03:22:02.098Z,17.84
2018-06-20T03:23:02.095Z,18.40
2018-06-20T03:24:02.097Z,18.39
2018-06-20T03:25:02.094Z,18.44
2018-06-20T03:26:02.096Z,18.59
2018-06-20T03:27:02.093Z,18.86
2018-06-20T03:28:02.093Z,18.57
2018-06-20T03:29:02.094Z,18.57
2018-06-20T03:30:02.109Z,18.31
2018-06-20T03:31:02.090Z,18.13
2018-06-20T03:32:02.107Z,18.15
2018-06-20T03:33:02.111Z,18.29
2018-06-20T03:34:02.093Z,18.42
2018-06-20T03:35:02.100Z,18.47
2018-06-20T03:36:02.096Z,18.43
2018-06-20T03:37:02.106Z,18.55
2018-06-20T03:38:02.095Z,18.68
2018-06-20T03:39:02.100Z,18.83
2018-06-20T03:40:02.105Z,19.01
2018-06-20T03:41:02.099Z,18.24
2018-06-20T03:42:02.110Z,17.81
2018-06-20T03:43:02.106Z,17.88
2018-06-20T03:44:02.105Z,18.54
2018-06-20T03:45:02.117Z,18.61
2018-06-20T03:46:02.120Z,18.42
2018-06-20T03:47:02.123Z,18.49
2018-06-20T03:48:02.112Z,18.50
2018-06-20T03:49:02.129Z,18.29
2018-06-20T03:50:02.114Z,18.50
2018-06-20T03:51:10.767Z,18.61
2018-06-20T03:53:04.592Z,18.50
2018-06-20T03:53:55.532Z,18.61
2018-06-20T03:54:55.535Z,18.46
2018-06-20T03:55:55.536Z,18.55
2018-06-20T03:56:55.529Z,18.76
2018-06-20T03:59:16.615Z,18.99
2018-06-20T04:00:16.584Z,18.98
2018-06-20T04:01:16.582Z,19.02
2018-06-20T04:02:16.637Z,18.82
2018-06-20T04:03:16.585Z,18.70
2018-06-20T04:04:16.585Z,18.72
2018-06-20T04:05:16.591Z,18.73
2018-06-20T04:06:16.592Z,18.55
2018-06-20T04:07:16.597Z,18.68
2018-06-20T04:08:16.591Z,18.83
2018-06-20T04:09:16.602Z,19.23
2018-06-20T04:10:16.606Z,18.98
2018-06-20T04:11:16.614Z,19.06
2018-06-20T04:12:16.600Z,19.02
2018-06-20T04:13:16.605Z,18.86
2018-06-20T04:14:16.613Z,18.80
2018-06-20T04:15:16.624Z,18.59
2018-06-20T04:16:16.620Z,18.68
2018-06-20T04:17:16.616Z,18.61
2018-06-20T04:18:16.661Z,18.59
2018-06-20T04:19:16.616Z,18.68
2018-06-20T04:20:16.621Z,18.64
2018-06-20T04:21:16.618Z,19.15
2018-06-20T04:22:16.620Z,19.35
2018-06-20T04:23:16.629Z,19.31
2018-06-20T04:24:16.632Z,19.13
2018-06-20T04:25:16.637Z,19.38
2018-06-20T04:26:16.656Z,19.15
2018-06-20T04:27:16.646Z,19.11
2018-06-20T04:28:16.652Z,19.10
2018-06-20T04:29:16.661Z,19.14
2018-06-20T04:30:16.671Z,19.11
2018-06-20T04:31:16.657Z,19.31
2018-06-20T04:32:16.654Z,19.14
2018-06-20T04:33:16.666Z,19.20
2018-06-20T04:34:16.667Z,19.10
2018-06-20T04:35:16.688Z,19.47
2018-06-20T04:36:16.660Z,19.55
2018-06-20T04:38:37.722Z,19.63
2018-06-20T04:39:37.708Z,19.55
2018-06-20T04:40:37.714Z,19.60
2018-06-20T04:41:37.723Z,19.55
2018-06-20T04:42:37.751Z,19.78
2018-06-20T04:43:46.657Z,19.87
2018-06-20T04:45:31.404Z,20.43
2018-06-20T04:46:31.219Z,20.50
2018-06-20T04:47:40.398Z,20.51
2018-06-20T04:49:33.960Z,20.74
2018-06-20T04:50:24.830Z,20.84
2018-06-20T04:51:24.665Z,21.16
2018-06-20T04:52:24.611Z,21.29
2018-06-20T04:53:33.656Z,21.04
2018-06-20T04:55:18.348Z,20.96
2018-06-20T04:56:18.344Z,21.14
2018-06-20T04:57:18.337Z,21.21
2018-06-20T04:58:18.498Z,21.51
2018-06-20T04:59:18.272Z,21.74
2018-06-20T05:00:18.290Z,21.83
2018-06-20T05:01:18.312Z,22.19
2018-06-20T05:02:18.348Z,22.72
2018-06-20T05:03:18.328Z,22.57
2018-06-20T05:04:18.412Z,22.34
2018-06-20T05:05:18.317Z,22.28
2018-06-20T05:06:18.342Z,22.14
2018-06-20T05:07:27.894Z,21.94
2018-06-20T05:09:22.632Z,21.53
2018-06-20T05:10:12.673Z,21.78
2018-06-20T05:11:22.064Z,21.69
2018-06-20T05:13:06.278Z,21.78
2018-06-20T05:14:06.279Z,21.66
2018-06-20T05:15:06.282Z,22.13
2018-06-20T05:16:06.272Z,22.10
2018-06-20T05:17:09.702Z,22.14
2018-06-20T05:18:06.351Z,22.07
2018-06-20T05:19:06.532Z,22.02
2018-06-20T05:20:06.293Z,21.91
2018-06-20T05:21:06.319Z,21.81
2018-06-20T05:22:06.365Z,21.99
2018-06-20T05:23:06.370Z,21.94
2018-06-20T05:24:06.329Z,22.09
2018-06-20T05:25:06.364Z,22.07
2018-06-20T05:26:06.388Z,22.20
2018-06-20T05:27:06.447Z,22.19
2018-06-20T05:28:06.427Z,22.32
2018-06-20T05:29:06.465Z,22.25
2018-06-20T05:30:06.493Z,22.43
2018-06-20T05:31:06.476Z,22.43
2018-06-20T05:32:06.500Z,22.56
2018-06-20T05:33:06.533Z,22.69
2018-06-20T05:34:06.556Z,22.72
2018-06-20T05:35:06.612Z,22.93
2018-06-20T05:36:06.537Z,22.78
2018-06-20T05:37:06.552Z,22.84
2018-06-20T05:38:06.565Z,22.80
2018-06-20T05:39:06.622Z,22.99
2018-06-20T05:40:06.587Z,23.01
2018-06-20T05:41:06.664Z,23.07
2018-06-20T05:42:06.731Z,22.89
2018-06-20T05:43:06.678Z,23.19
2018-06-20T05:44:06.793Z,23.53
2018-06-20T05:45:06.798Z,23.55
2018-06-20T05:46:06.757Z,23.79
2018-06-20T05:47:06.771Z,24.05
2018-06-20T05:48:06.749Z,24.07
2018-06-20T05:49:06.827Z,24.12
2018-06-20T05:51:29.192Z,24.47
2018-06-20T05:52:28.947Z,24.83
2018-06-20T05:53:28.976Z,24.63
2018-06-20T05:54:29.045Z,24.83
2018-06-20T05:55:29.025Z,24.95
2018-06-20T05:56:29.042Z,24.85
2018-06-20T05:57:29.219Z,24.97
2018-06-20T05:58:29.039Z,25.35
2018-06-20T05:59:29.073Z,25.57
2018-06-20T06:00:29.120Z,25.59
2018-06-20T06:01:29.093Z,25.98
2018-06-20T06:02:29.107Z,26.11
2018-06-20T06:03:29.187Z,25.98
2018-06-20T06:04:29.191Z,25.84
2018-06-20T06:05:29.237Z,26.37
2018-06-20T06:06:29.275Z,26.67
2018-06-20T06:07:29.535Z,26.54
2018-06-20T06:08:29.272Z,26.12
2018-06-20T06:09:29.296Z,25.93
2018-06-20T06:10:29.347Z,26.57
2018-06-20T06:11:29.310Z,26.59
2018-06-20T06:12:29.445Z,27.01
2018-06-20T06:13:29.457Z,26.77
2018-06-20T06:14:29.525Z,26.27
2018-06-20T06:15:29.420Z,26.98
2018-06-20T06:16:29.424Z,27.23
2018-06-20T06:17:29.444Z,26.65
2018-06-20T06:18:29.551Z,27.02
2018-06-20T06:19:29.568Z,26.95
2018-06-20T06:20:29.555Z,27.01
2018-06-20T06:21:29.545Z,27.28
2018-06-20T06:22:29.570Z,28.01
2018-06-20T06:23:29.561Z,28.04
2018-06-20T06:24:29.624Z,27.64
2018-06-20T06:25:29.603Z,26.89
2018-06-20T06:26:29.611Z,25.93
2018-06-20T06:27:29.663Z,25.38
2018-06-20T06:28:29.656Z,24.94
2018-06-20T06:29:29.749Z,24.97
2018-06-20T06:30:29.833Z,25.28
2018-06-20T06:31:29.682Z,25.38
2018-06-20T06:32:38.597Z,25.35
2018-06-20T06:34:34.298Z,25.09
2018-06-20T06:35:32.223Z,24.95
2018-06-20T06:37:25.919Z,24.53
2018-06-20T06:38:25.456Z,24.76
2018-06-20T06:40:10.232Z,24.82
2018-06-20T06:41:10.020Z,24.83
2018-06-20T06:43:31.425Z,23.92
2018-06-20T06:44:40.036Z,24.02
2018-06-20T06:46:24.815Z,24.05
2018-06-20T06:47:33.465Z,24.39
2018-06-20T06:49:18.174Z,24.83
2018-06-20T06:50:17.919Z,24.61
2018-06-20T06:51:27.841Z,24.77
2018-06-20T06:53:11.571Z,24.77
2018-06-20T06:54:21.258Z,24.73
2018-06-20T06:56:05.950Z,24.44
2018-06-20T06:57:05.793Z,24.23
2018-06-20T06:58:05.776Z,24.59
2018-06-20T06:59:05.930Z,24.64
2018-06-20T07:00:05.809Z,24.42
2018-06-20T07:01:05.790Z,24.34
2018-06-20T07:02:05.822Z,24.52
2018-06-20T07:03:05.948Z,23.87
2018-06-20T07:04:05.843Z,23.83
2018-06-20T07:05:05.821Z,23.76
2018-06-20T07:06:05.863Z,24.01
2018-06-20T07:07:05.841Z,24.31
2018-06-20T07:08:05.846Z,24.31
2018-06-20T07:09:05.869Z,24.07
2018-06-20T07:10:05.892Z,24.13
2018-06-20T07:11:05.870Z,24.20
2018-06-20T07:12:05.873Z,24.31
2018-06-20T07:13:05.876Z,24.54
2018-06-20T07:14:05.895Z,24.41
2018-06-20T07:15:05.894Z,23.71
2018-06-20T07:16:05.898Z,23.57
2018-06-20T07:17:05.924Z,23.72
2018-06-20T07:18:05.952Z,23.50
2018-06-20T07:19:05.941Z,23.60
2018-06-20T07:20:05.976Z,23.79
2018-06-20T07:21:05.939Z,24.10
2018-06-20T07:22:05.941Z,24.14
2018-06-20T07:23:05.963Z,24.24
2018-06-20T07:24:05.964Z,24.27
2018-06-20T07:25:05.967Z,24.29
2018-06-20T07:26:05.999Z,24.24
2018-06-20T07:27:05.976Z,24.31
2018-06-20T07:28:06.005Z,24.34
2018-06-20T07:29:06.025Z,24.35
2018-06-20T07:30:14.776Z,24.42
2018-06-20T07:31:59.410Z,24.10
2018-06-20T07:32:59.430Z,24.19
2018-06-20T07:33:59.432Z,24.39
2018-06-20T07:34:59.434Z,24.42
2018-06-20T07:35:59.460Z,23.95
2018-06-20T07:37:09.142Z,23.72
2018-06-20T07:38:52.979Z,23.85
2018-06-20T07:39:52.884Z,24.01
2018-06-20T07:40:52.861Z,23.95
2018-06-20T07:41:52.899Z,23.97
2018-06-20T07:42:53.012Z,24.20
2018-06-20T07:43:52.904Z,24.35
2018-06-20T07:44:52.896Z,24.20
2018-06-20T07:45:52.928Z,24.31
2018-06-20T07:47:00.129Z,24.35
2018-06-20T07:48:46.384Z,24.47
2018-06-20T07:49:46.328Z,24.14
2018-06-20T07:50:46.337Z,24.08
2018-06-20T07:51:46.360Z,24.17
2018-06-20T07:52:46.513Z,24.20
2018-06-20T07:53:46.340Z,23.97
2018-06-20T07:54:46.354Z,23.90
2018-06-20T07:55:46.369Z,24.16
2018-06-20T07:56:46.375Z,24.26
2018-06-20T07:57:46.391Z,24.35
2018-06-20T07:58:46.377Z,24.41
2018-06-20T07:59:46.384Z,24.35
2018-06-20T08:00:46.472Z,24.34
2018-06-20T08:01:46.425Z,24.35
2018-06-20T08:02:46.402Z,24.24
2018-06-20T08:03:46.440Z,24.07
2018-06-20T08:04:46.428Z,23.75
2018-06-20T08:05:46.438Z,23.95
2018-06-20T08:06:46.463Z,24.16
2018-06-20T08:07:46.441Z,24.16
2018-06-20T08:08:46.474Z,24.10
2018-06-20T08:09:46.481Z,24.24
2018-06-20T08:10:46.473Z,24.29
2018-06-20T08:11:46.508Z,24.24
2018-06-20T08:12:46.467Z,24.20
2018-06-20T08:13:46.503Z,24.45
2018-06-20T08:14:46.510Z,24.67
2018-06-20T08:15:46.536Z,24.39
2018-06-20T08:16:46.496Z,24.39
2018-06-20T08:17:46.525Z,24.45
2018-06-20T08:20:07.675Z,24.53
2018-06-20T08:21:16.322Z,24.52
2018-06-20T08:23:01.002Z,24.42
2018-06-20T08:24:08.677Z,24.50
2018-06-20T08:26:03.585Z,24.87
2018-06-20T08:27:03.224Z,24.92
2018-06-20T08:28:48.067Z,24.63
2018-06-20T08:29:48.010Z,24.60
2018-06-20T08:30:48.035Z,24.54
2018-06-20T08:31:48.048Z,24.64
2018-06-20T08:32:48.055Z,24.83
2018-06-20T08:33:48.128Z,24.87
2018-06-20T08:34:48.058Z,24.85
2018-06-20T08:35:48.047Z,24.87
2018-06-20T08:36:48.074Z,24.83
2018-06-20T08:37:48.078Z,24.76
2018-06-20T08:38:48.100Z,24.56
2018-06-20T08:39:48.073Z,24.71
2018-06-20T08:40:48.078Z,24.85
2018-06-20T08:41:48.111Z,24.85
2018-06-20T08:42:48.134Z,24.87
2018-06-20T08:43:48.133Z,24.95
2018-06-20T08:44:48.127Z,24.97
2018-06-20T08:45:48.134Z,25.02
2018-06-20T08:46:48.151Z,24.97
2018-06-20T08:47:48.159Z,25.07
2018-06-20T08:48:48.152Z,25.01
2018-06-20T08:49:48.171Z,25.24
2018-06-20T08:50:48.153Z,25.34
2018-06-20T08:51:48.211Z,25.34
2018-06-20T08:52:48.161Z,25.28
2018-06-20T08:53:48.173Z,25.10
2018-06-20T08:54:48.180Z,25.24
2018-06-20T08:55:48.184Z,25.27
2018-06-20T08:56:48.194Z,25.24
2018-06-20T08:57:56.912Z,25.27
2018-06-20T08:59:42.703Z,25.25
2018-06-20T09:00:42.678Z,25.35
2018-06-20T09:01:42.682Z,25.43
2018-06-20T09:02:42.720Z,25.35
2018-06-20T09:03:42.725Z,25.57
2018-06-20T09:04:42.847Z,25.61
2018-06-20T09:05:42.706Z,25.24
2018-06-20T09:06:42.713Z,25.24
2018-06-20T09:07:42.731Z,25.35
2018-06-20T09:08:42.745Z,25.31
2018-06-20T09:09:42.756Z,25.35
2018-06-20T09:10:42.750Z,25.34
2018-06-20T09:11:42.754Z,25.46
2018-06-20T09:12:42.778Z,25.62
2018-06-20T09:15:13.983Z,25.56
2018-06-20T09:16:13.609Z,25.69
2018-06-20T09:17:58.288Z,25.87
2018-06-20T09:18:58.247Z,25.75
2018-06-20T09:19:58.273Z,25.61
2018-06-20T09:20:58.312Z,25.54
2018-06-20T09:21:58.292Z,25.57
2018-06-20T09:22:58.268Z,25.54
2018-06-20T09:23:58.297Z,25.56
2018-06-20T09:24:58.282Z,25.77
2018-06-20T09:25:58.287Z,25.75
2018-06-20T09:26:58.365Z,25.79
2018-06-20T09:27:58.308Z,25.74
2018-06-20T09:28:58.309Z,25.62
2018-06-20T09:29:58.325Z,25.38
2018-06-20T09:30:58.370Z,25.46
2018-06-20T09:31:58.329Z,25.84
2018-06-20T09:32:58.340Z,25.98
2018-06-20T09:33:58.364Z,25.89
2018-06-20T09:34:58.353Z,25.75
2018-06-20T09:35:58.364Z,25.59
2018-06-20T09:36:58.372Z,25.84
2018-06-20T09:37:58.379Z,25.68
2018-06-20T09:38:58.413Z,25.74
2018-06-20T09:39:58.428Z,25.71
2018-06-20T09:40:58.393Z,25.87
2018-06-20T09:41:58.430Z,26.02
2018-06-20T09:42:58.429Z,26.09
2018-06-20T09:43:58.486Z,26.09
2018-06-20T09:44:58.446Z,25.94
2018-06-20T09:45:58.432Z,25.83
2018-06-20T09:46:58.449Z,25.94
2018-06-20T09:47:58.476Z,26.32
2018-06-20T09:48:58.465Z,26.29
2018-06-20T09:49:58.476Z,26.36
2018-06-20T09:50:58.481Z,26.29
2018-06-20T09:51:58.487Z,26.40
2018-06-20T09:52:58.524Z,26.55
2018-06-20T09:53:58.503Z,26.37
2018-06-20T09:54:58.512Z,26.17
2018-06-20T09:55:58.586Z,26.11
2018-06-20T09:56:58.525Z,26.11
2018-06-20T09:57:58.604Z,26.25
2018-06-20T09:58:58.567Z,26.39
2018-06-20T09:59:58.543Z,26.25
2018-06-20T10:00:58.553Z,26.55
2018-06-20T10:01:58.566Z,26.84
2018-06-20T10:02:58.579Z,26.67
2018-06-20T10:03:58.606Z,26.74
2018-06-20T10:04:58.593Z,26.73
2018-06-20T10:05:58.631Z,26.57
2018-06-20T10:06:58.610Z,26.42
2018-06-20T10:07:58.627Z,26.32
2018-06-20T10:08:58.639Z,26.46
2018-06-20T10:09:58.620Z,26.28
2018-06-20T10:10:58.675Z,26.25
2018-06-20T10:11:58.635Z,26.50
2018-06-20T10:12:58.697Z,26.57
2018-06-20T10:13:58.685Z,26.57
2018-06-20T10:14:58.681Z,26.65
2018-06-20T10:15:58.698Z,26.95
2018-06-20T10:16:58.690Z,26.67
2018-06-20T10:17:58.734Z,26.79
2018-06-20T10:18:58.698Z,27.05
2018-06-20T10:19:58.701Z,27.01
2018-06-20T10:20:58.727Z,27.05
2018-06-20T10:21:58.719Z,26.95
2018-06-20T10:22:58.738Z,26.91
2018-06-20T10:24:07.440Z,27.01
2018-06-20T10:25:52.424Z,26.96
2018-06-20T10:26:52.418Z,26.77
2018-06-20T10:27:52.441Z,26.83
2018-06-20T10:28:52.513Z,26.83
2018-06-20T10:30:01.203Z,27.02
2018-06-20T10:31:46.872Z,26.95
2018-06-20T10:32:46.863Z,27.09
2018-06-20T10:33:46.915Z,27.01
2018-06-20T10:34:46.904Z,27.06
2018-06-20T10:35:46.966Z,27.10
2018-06-20T10:36:46.915Z,26.96
2018-06-20T10:37:46.918Z,26.87
2018-06-20T10:38:46.925Z,27.16
2018-06-20T10:39:46.969Z,26.99
2018-06-20T10:40:46.953Z,26.99
2018-06-20T10:41:46.930Z,26.86
2018-06-20T10:42:46.936Z,27.01
2018-06-20T10:43:46.970Z,26.98
2018-06-20T10:44:46.956Z,27.06
2018-06-20T10:45:46.956Z,27.04
2018-06-20T10:46:46.990Z,26.96
2018-06-20T10:47:46.997Z,26.98
2018-06-20T10:48:47.010Z,27.01
2018-06-20T10:49:46.993Z,26.98
2018-06-20T10:50:47.002Z,27.09
2018-06-20T10:51:47.065Z,27.26
2018-06-20T10:52:47.018Z,27.33
2018-06-20T10:53:47.025Z,27.29
2018-06-20T10:54:57.489Z,27.50
2018-06-20T10:56:40.533Z,27.84
2018-06-20T10:57:40.497Z,27.71
2018-06-20T10:58:40.518Z,27.76
2018-06-20T10:59:40.620Z,27.82
2018-06-20T11:00:49.297Z,27.86
2018-06-20T11:01:40.544Z,27.69
2018-06-20T11:02:40.550Z,27.74
2018-06-20T11:03:40.579Z,27.66
2018-06-20T11:04:40.604Z,27.70
2018-06-20T11:05:48.272Z,27.80
2018-06-20T11:07:34.229Z,27.69
2018-06-20T11:08:34.055Z,27.35
2018-06-20T11:09:34.069Z,27.38
2018-06-20T11:10:34.026Z,27.64
2018-06-20T11:11:34.020Z,27.70
2018-06-20T11:12:34.068Z,27.54
2018-06-20T11:13:34.039Z,27.69
2018-06-20T11:14:34.077Z,27.84
2018-06-20T11:15:34.085Z,27.80
2018-06-20T11:16:34.066Z,27.46
2018-06-20T11:17:34.081Z,27.26
2018-06-20T11:18:34.077Z,27.43
2018-06-20T11:19:34.106Z,27.41
2018-06-20T11:20:34.159Z,27.50
2018-06-20T11:21:34.101Z,27.26
2018-06-20T11:22:34.148Z,27.42
2018-06-20T11:23:34.117Z,27.59
2018-06-20T11:24:34.146Z,27.42
2018-06-20T11:25:34.161Z,27.66
2018-06-20T11:26:34.155Z,27.51
2018-06-20T11:27:34.180Z,27.42
2018-06-20T11:28:34.191Z,27.28
2018-06-20T11:29:34.194Z,27.38
2018-06-20T11:30:34.196Z,27.64
2018-06-20T11:31:34.214Z,27.62
2018-06-20T11:32:34.201Z,27.41
2018-06-20T11:33:34.381Z,27.29
2018-06-20T11:34:34.236Z,27.41
2018-06-20T11:35:34.333Z,27.58
2018-06-20T11:36:34.265Z,27.89
2018-06-20T11:37:34.235Z,27.62
2018-06-20T11:38:34.254Z,27.42
2018-06-20T11:39:34.360Z,27.38
2018-06-20T11:40:34.269Z,27.76
2018-06-20T11:41:34.296Z,27.85
2018-06-20T11:42:34.280Z,27.74
2018-06-20T11:43:34.312Z,27.39
2018-06-20T11:44:34.312Z,27.48
2018-06-20T11:45:34.410Z,27.32
2018-06-20T11:46:34.354Z,27.19
2018-06-20T11:47:34.334Z,27.14
2018-06-20T11:48:34.370Z,27.17
2018-06-20T11:49:34.361Z,27.21
2018-06-20T11:50:34.380Z,27.53
2018-06-20T11:51:34.377Z,27.73
2018-06-20T11:52:34.369Z,28.01
2018-06-20T11:53:34.381Z,27.82
2018-06-20T11:54:34.407Z,27.53
2018-06-20T11:55:34.396Z,27.41
2018-06-20T11:56:34.465Z,27.35
2018-06-20T11:57:34.420Z,27.64
2018-06-20T11:58:34.449Z,27.61
2018-06-20T11:59:43.148Z,27.73
2018-06-20T12:01:27.937Z,27.80
2018-06-20T12:02:27.876Z,27.67
2018-06-20T12:03:27.873Z,27.59
2018-06-20T12:04:27.932Z,27.88
2018-06-20T12:05:27.887Z,27.98
2018-06-20T12:06:37.534Z,27.80
2018-06-20T12:08:22.443Z,27.64
2018-06-20T12:09:22.355Z,27.89
2018-06-20T12:10:22.317Z,28.16
2018-06-20T12:11:22.357Z,28.17
2018-06-20T12:12:22.334Z,28.38
2018-06-20T12:13:22.322Z,28.32
2018-06-20T12:14:22.369Z,28.22
2018-06-20T12:15:22.340Z,27.89
2018-06-20T12:16:22.352Z,27.84
2018-06-20T12:17:22.366Z,27.80
2018-06-20T12:18:22.370Z,28.31
2018-06-20T12:19:22.404Z,28.47
2018-06-20T12:20:22.385Z,28.59
2018-06-20T12:21:22.405Z,28.72
2018-06-20T12:22:22.403Z,28.91
2018-06-20T12:23:22.414Z,28.53
2018-06-20T12:24:22.435Z,28.53
2018-06-20T12:25:23.428Z,28.54
2018-06-20T12:26:22.520Z,28.46
2018-06-20T12:27:22.465Z,28.38
2018-06-20T12:28:22.503Z,28.36
2018-06-20T12:29:22.470Z,28.35
2018-06-20T12:30:22.518Z,28.28
2018-06-20T12:31:22.519Z,28.43
2018-06-20T12:32:22.495Z,28.56
2018-06-20T12:33:22.540Z,28.54
2018-06-20T12:34:22.538Z,28.56
2018-06-20T12:35:22.523Z,28.43
2018-06-20T12:36:22.569Z,28.26
2018-06-20T12:37:22.605Z,28.01
2018-06-20T12:38:22.580Z,27.95
2018-06-20T12:39:22.609Z,28.09
2018-06-20T12:40:22.562Z,28.25
2018-06-20T12:41:22.590Z,28.10
2018-06-20T12:42:22.608Z,28.13
2018-06-20T12:43:22.614Z,28.22
2018-06-20T12:44:22.596Z,28.28
2018-06-20T12:45:22.625Z,28.16
2018-06-20T12:46:22.633Z,28.19
2018-06-20T12:47:22.633Z,28.10
2018-06-20T12:48:22.639Z,28.23
2018-06-20T12:49:22.663Z,28.09
2018-06-20T12:50:22.671Z,28.38
2018-06-20T12:51:22.668Z,28.35
2018-06-20T12:52:22.721Z,28.47
2018-06-20T12:53:22.688Z,28.22
2018-06-20T12:54:22.686Z,28.25
2018-06-20T12:55:22.703Z,28.40
2018-06-20T12:56:22.715Z,28.60
2018-06-20T12:57:22.723Z,28.59
2018-06-20T12:58:22.792Z,28.58
2018-06-20T12:59:22.729Z,28.50
2018-06-20T13:00:22.742Z,28.28
2018-06-20T13:01:22.761Z,28.01
2018-06-20T13:02:22.758Z,27.98
2018-06-20T13:03:22.763Z,28.06
2018-06-20T13:04:22.780Z,28.23
2018-06-20T13:05:22.791Z,28.36
2018-06-20T13:06:22.798Z,28.35
2018-06-20T13:07:22.805Z,28.36
2018-06-20T13:08:22.813Z,28.58
2018-06-20T13:09:22.824Z,28.78
2018-06-20T13:10:22.834Z,28.78
2018-06-20T13:11:32.548Z,28.51
2018-06-20T13:13:25.349Z,28.87
2018-06-20T13:14:25.009Z,28.82
2018-06-20T13:16:18.860Z,28.82
2018-06-20T13:17:18.445Z,28.88
2018-06-20T13:19:04.133Z,28.81
2018-06-20T13:20:04.135Z,28.65
2018-06-20T13:21:04.147Z,28.85
2018-06-20T13:22:12.956Z,28.95
2018-06-20T13:24:06.716Z,28.87
